createdAt,value
2023-05-25T00:01:48.991Z,100316.28
2023-05-25T00:04:17.670Z,100305.56
2023-05-25T00:06:47.522Z,100320.56
2023-05-25T00:09:15.210Z,100332.00
2023-05-25T00:11:42.736Z,100341.69
2023-05-25T00:14:10.241Z,100344.25
2023-05-25T00:16:37.950Z,100346.81
2023-05-25T00:19:10.865Z,100383.97
2023-05-25T00:21:38.545Z,100372.41
2023-05-25T00:24:06.724Z,100381.22
2023-05-25T00:26:37.478Z,100400.53
2023-05-25T00:29:05.075Z,100408.47
2023-05-25T00:31:36.833Z,100422.50
2023-05-25T00:34:04.519Z,100435.72
2023-05-25T00:36:31.939Z,100443.63
2023-05-25T00:38:59.473Z,100443.50
2023-05-25T00:41:28.660Z,100478.88
2023-05-25T00:43:56.149Z,100477.81
2023-05-25T00:46:23.919Z,100485.72
2023-05-25T00:48:55.136Z,100492.59
2023-05-25T00:51:22.785Z,100518.19
2023-05-25T00:53:50.292Z,100527.00
2023-05-25T00:56:28.349Z,100542.09
2023-05-25T00:58:57.239Z,100549.03
2023-05-25T01:01:27.553Z,100540.94
2023-05-25T01:03:57.862Z,100547.16
2023-05-25T01:06:27.101Z,100565.63
2023-05-25T01:09:02.276Z,100564.63
2023-05-25T01:11:36.543Z,100568.00
2023-05-25T01:14:04.152Z,100581.22
2023-05-25T01:16:32.082Z,100588.19
2023-05-25T01:18:59.587Z,100600.59
2023-05-25T01:21:42.342Z,100606.66
2023-05-25T01:24:22.944Z,100616.22
2023-05-25T01:26:58.787Z,100633.06
2023-05-25T01:29:28.482Z,100631.13
2023-05-25T01:31:57.559Z,100631.91
2023-05-25T01:34:26.090Z,100645.13
2023-05-25T01:36:53.800Z,100668.97
2023-05-25T01:39:24.187Z,100668.78
2023-05-25T01:41:51.648Z,100676.63
2023-05-25T01:44:19.468Z,100703.22
2023-05-25T01:46:47.106Z,100703.00
2023-05-25T01:49:17.101Z,100705.41
2023-05-25T01:51:57.060Z,100726.59
2023-05-25T01:54:36.726Z,100747.78
2023-05-25T01:57:09.531Z,100762.91
2023-05-25T01:59:38.320Z,100767.06
2023-05-25T02:02:06.270Z,100773.19
2023-05-25T02:04:33.901Z,100811.28
2023-05-25T02:07:01.424Z,100804.00
2023-05-25T02:09:28.947Z,100806.50
2023-05-25T02:11:56.508Z,100823.31
2023-05-25T02:14:24.102Z,100831.28
2023-05-25T02:16:51.875Z,100841.69
2023-05-25T02:19:19.384Z,100857.72
2023-05-25T02:21:46.792Z,100868.19
2023-05-25T02:24:14.354Z,100874.16
2023-05-25T02:26:41.814Z,100886.31
2023-05-25T02:29:09.268Z,100897.81
2023-05-25T02:31:38.052Z,100913.72
2023-05-25T02:34:05.588Z,100922.44
2023-05-25T02:36:34.835Z,100938.13
2023-05-25T02:39:02.385Z,100944.22
2023-05-25T02:41:29.772Z,100956.81
2023-05-25T02:43:58.157Z,100961.03
2023-05-25T02:46:25.723Z,100969.91
2023-05-25T02:48:53.299Z,100970.69
2023-05-25T02:51:20.831Z,100987.25
2023-05-25T02:53:48.507Z,101004.72
2023-05-25T02:56:16.385Z,101009.91
2023-05-25T02:58:44.110Z,101023.97
2023-05-25T03:01:18.879Z,101029.97
2023-05-25T03:03:47.463Z,101045.91
2023-05-25T03:06:15.042Z,101048.41
2023-05-25T03:08:42.601Z,101063.28
2023-05-25T03:11:10.074Z,101068.56
2023-05-25T03:14:31.298Z,101079.06
2023-05-25T03:16:59.294Z,101080.03
2023-05-25T03:19:27.093Z,101084.44
2023-05-25T03:21:54.942Z,101088.59
2023-05-25T03:24:22.648Z,101102.69
2023-05-25T03:26:50.378Z,101121.19
2023-05-25T03:29:18.378Z,101130.19
2023-05-25T03:31:45.830Z,101123.09
2023-05-25T03:34:13.654Z,101120.13
2023-05-25T03:36:46.184Z,101128.97
2023-05-25T03:40:09.827Z,101136.03
2023-05-25T03:42:38.269Z,101141.34
2023-05-25T03:45:06.889Z,101142.09
2023-05-25T03:47:34.976Z,101155.16
2023-05-25T03:50:07.278Z,101165.75
2023-05-25T03:52:35.363Z,101171.78
2023-05-25T03:55:04.720Z,101199.19
2023-05-25T03:57:32.678Z,101198.34
2023-05-25T04:00:00.276Z,101210.81
2023-05-25T04:02:28.034Z,101209.47
2023-05-25T04:04:57.174Z,101219.31
2023-05-25T04:07:25.023Z,101227.91
2023-05-25T04:09:52.620Z,101232.53
2023-05-25T04:12:20.202Z,101236.88
2023-05-25T04:14:47.876Z,101245.00
2023-05-25T04:17:15.666Z,101256.34
2023-05-25T04:19:43.236Z,101261.66
2023-05-25T04:22:10.625Z,101269.06
2023-05-25T04:24:37.851Z,101265.38
2023-05-25T04:27:05.709Z,101269.06
2023-05-25T04:29:33.439Z,101269.06
2023-05-25T04:32:01.435Z,101278.72
2023-05-25T04:34:30.038Z,101287.59
2023-05-25T04:36:58.077Z,101293.06
2023-05-25T04:39:25.802Z,101286.94
2023-05-25T04:41:53.855Z,101294.94
2023-05-25T04:44:21.656Z,101291.50
2023-05-25T04:46:49.477Z,101292.56
2023-05-25T04:49:19.144Z,101292.66
2023-05-25T04:51:46.687Z,101303.47
2023-05-25T04:54:14.190Z,101303.47
2023-05-25T04:56:41.977Z,101301.81
2023-05-25T04:59:09.551Z,101299.38
2023-05-25T05:01:41.486Z,101308.38
2023-05-25T05:04:09.489Z,101296.88
2023-05-25T05:06:37.126Z,101298.00
2023-05-25T05:09:04.837Z,101301.66
2023-05-25T05:11:32.257Z,101306.22
2023-05-25T05:13:59.574Z,101303.91
2023-05-25T05:16:27.182Z,101291.75
2023-05-25T05:18:54.607Z,101289.25
2023-05-25T05:21:23.546Z,101284.94
2023-05-25T05:23:51.328Z,101285.19
2023-05-25T05:26:18.838Z,101272.06
2023-05-25T05:28:46.472Z,101266.03
2023-05-25T05:31:14.046Z,101246.84
2023-05-25T05:33:41.769Z,101239.13
2023-05-25T05:36:09.502Z,101224.28
2023-05-25T05:38:39.331Z,101202.53
2023-05-25T05:41:13.528Z,101199.31
2023-05-25T05:43:45.724Z,101181.88
2023-05-25T05:46:13.381Z,101182.84
2023-05-25T05:48:41.631Z,101168.81
2023-05-25T05:51:09.109Z,101180.66
2023-05-25T05:53:36.675Z,101166.59
2023-05-25T05:56:04.657Z,101153.50
2023-05-25T05:58:32.643Z,101137.78
2023-05-25T06:01:00.425Z,101144.31
2023-05-25T06:03:29.013Z,101134.75
2023-05-25T06:05:56.501Z,101107.47
2023-05-25T06:08:24.025Z,101112.13
2023-05-25T06:10:51.443Z,101090.22
2023-05-25T06:13:18.906Z,101069.16
2023-05-25T06:15:46.729Z,101042.78
2023-05-25T06:18:14.441Z,101027.00
2023-05-25T06:20:41.971Z,101017.53
2023-05-25T06:23:11.586Z,101005.19
2023-05-25T06:25:39.223Z,100978.75
2023-05-25T06:28:06.804Z,100989.56
2023-05-25T06:30:34.344Z,100963.88
2023-05-25T06:33:02.094Z,100949.00
2023-05-25T06:35:30.089Z,100931.19
2023-05-25T06:37:57.985Z,100935.78
2023-05-25T06:40:25.665Z,100923.56
2023-05-25T06:42:53.298Z,100915.56
2023-05-25T06:45:21.480Z,100934.34
2023-05-25T06:47:48.950Z,100922.81
2023-05-25T06:50:16.878Z,100922.94
2023-05-25T06:52:44.420Z,100927.41
2023-05-25T06:55:11.800Z,100915.94
2023-05-25T06:57:39.415Z,100926.78
2023-05-25T07:00:08.385Z,100878.78
2023-05-25T07:02:36.075Z,100878.13
2023-05-25T07:05:05.934Z,100885.38
2023-05-25T07:07:33.694Z,100872.91
2023-05-25T07:10:01.749Z,100876.50
2023-05-25T07:12:29.187Z,100836.63
2023-05-25T07:14:57.589Z,100827.81
2023-05-25T07:17:25.083Z,100798.56
2023-05-25T07:19:52.751Z,100787.97
2023-05-25T07:22:20.631Z,100770.25
2023-05-25T07:24:48.066Z,100780.94
2023-05-25T07:27:16.497Z,100765.88
2023-05-25T07:29:44.255Z,100757.91
2023-05-25T07:32:11.983Z,100710.03
2023-05-25T07:34:39.618Z,100705.59
2023-05-25T07:37:07.045Z,100694.03
2023-05-25T07:39:34.508Z,100677.09
2023-05-25T07:42:02.780Z,100670.78
2023-05-25T07:44:30.448Z,100626.53
2023-05-25T07:46:57.958Z,100647.59
2023-05-25T07:49:25.906Z,100621.06
2023-05-25T07:51:53.417Z,100627.09
2023-05-25T07:54:21.118Z,100606.69
2023-05-25T07:56:48.559Z,100586.25
2023-05-25T07:59:16.089Z,100591.47
2023-05-25T08:01:43.561Z,100592.22
2023-05-25T08:04:11.085Z,100576.94
2023-05-25T08:06:38.744Z,100568.06
2023-05-25T08:09:08.234Z,100556.16
2023-05-25T08:11:35.851Z,100502.25
2023-05-25T08:14:03.407Z,100485.28
2023-05-25T08:16:30.999Z,100484.88
2023-05-25T08:18:59.847Z,100456.50
2023-05-25T08:21:27.312Z,100438.63
2023-05-25T08:23:54.832Z,100396.00
2023-05-25T08:28:53.514Z,100368.25
2023-05-25T08:31:21.083Z,100345.81
2023-05-25T08:33:48.559Z,100361.59
2023-05-25T08:36:16.251Z,100390.78
2023-05-25T08:38:43.732Z,100414.09
2023-05-25T08:41:13.553Z,100340.19
2023-05-25T08:43:42.929Z,100296.75
2023-05-25T08:46:10.653Z,100243.44
2023-05-25T08:48:42.282Z,100226.63
2023-05-25T08:51:12.110Z,100242.22
2023-05-25T08:53:41.373Z,100288.47
2023-05-25T08:56:20.593Z,100310.78
2023-05-25T08:59:13.108Z,100292.38
2023-05-25T09:01:46.933Z,100182.75
2023-05-25T09:04:14.751Z,100163.59
2023-05-25T09:06:42.490Z,100161.72
2023-05-25T09:09:10.746Z,100160.09
2023-05-25T09:11:40.665Z,100042.09
2023-05-25T09:14:09.277Z,100096.97
2023-05-25T09:16:38.558Z,100073.59
2023-05-25T09:19:06.156Z,100099.78
2023-05-25T09:21:33.734Z,100132.06
2023-05-25T09:24:01.271Z,100112.34
2023-05-25T09:26:28.902Z,100057.75
2023-05-25T09:28:56.398Z,100029.75
2023-05-25T09:31:25.322Z,99983.50
2023-05-25T09:34:00.090Z,99990.50
2023-05-25T09:36:28.018Z,99941.38
2023-05-25T09:38:56.609Z,99963.03
2023-05-25T09:41:27.871Z,99924.47
2023-05-25T09:44:06.600Z,99936.94
2023-05-25T09:46:39.325Z,99939.38
2023-05-25T09:49:09.502Z,99851.16
2023-05-25T09:51:37.573Z,99838.69
2023-05-25T09:54:05.581Z,99958.97
2023-05-25T09:56:36.481Z,99823.69
2023-05-25T09:59:04.386Z,99736.41
2023-05-25T10:01:33.852Z,99832.72
2023-05-25T10:04:05.099Z,99766.75
2023-05-25T10:06:34.070Z,99870.75
2023-05-25T10:09:01.998Z,99882.31
2023-05-25T10:11:29.825Z,99828.34
2023-05-25T10:13:59.105Z,99733.50
2023-05-25T10:16:29.876Z,99768.09
2023-05-25T10:19:21.876Z,99822.25
2023-05-25T10:22:05.564Z,99778.19
2023-05-25T10:24:33.033Z,99704.66
2023-05-25T10:27:07.721Z,99792.03
2023-05-25T10:29:42.973Z,99767.03
2023-05-25T10:32:10.490Z,99789.88
2023-05-25T10:34:37.891Z,99645.03
2023-05-25T10:37:06.197Z,99601.09
2023-05-25T10:39:34.140Z,99619.09
2023-05-25T10:42:03.443Z,99609.66
2023-05-25T10:44:33.251Z,99491.41
2023-05-25T10:47:01.328Z,99656.34
2023-05-25T10:49:35.639Z,99590.06
2023-05-25T10:52:06.281Z,99571.75
2023-05-25T10:54:36.531Z,99525.00
2023-05-25T10:57:21.692Z,99576.38
2023-05-25T11:00:00.134Z,99593.13
2023-05-25T11:02:32.491Z,99366.59
2023-05-25T11:05:27.569Z,99502.88
2023-05-25T11:08:08.696Z,99537.25
2023-05-25T11:10:51.014Z,99549.03
2023-05-25T11:13:37.852Z,99444.72
2023-05-25T11:16:22.912Z,99473.38
2023-05-25T11:18:55.077Z,99480.34
2023-05-25T11:21:41.325Z,99424.66
2023-05-25T11:24:17.555Z,99528.22
2023-05-25T11:26:56.869Z,99336.06
2023-05-25T11:29:25.924Z,99186.25
2023-05-25T11:31:55.571Z,99427.03
2023-05-25T11:34:25.483Z,99312.25
2023-05-25T11:37:04.248Z,99378.78
2023-05-25T11:39:31.932Z,99296.94
2023-05-25T11:42:11.405Z,99316.13
2023-05-25T11:44:39.190Z,99254.50
2023-05-25T11:47:14.516Z,99102.88
2023-05-25T11:49:44.256Z,99177.00
2023-05-25T11:52:12.372Z,99119.25
2023-05-25T11:54:41.368Z,99173.47
2023-05-25T11:57:21.193Z,99193.88
2023-05-25T11:59:57.381Z,99150.25
2023-05-25T12:02:25.455Z,99282.03
2023-05-25T12:04:57.706Z,99113.00
2023-05-25T12:07:26.874Z,99061.88
2023-05-25T12:10:06.007Z,99244.94
2023-05-25T12:12:43.448Z,98988.72
2023-05-25T12:15:27.243Z,99133.88
2023-05-25T12:17:55.037Z,98998.22
2023-05-25T12:20:22.762Z,98951.31
2023-05-25T12:22:50.296Z,99076.75
2023-05-25T12:25:24.099Z,99009.53
2023-05-25T12:28:14.983Z,99107.53
2023-05-25T12:30:43.119Z,98963.69
2023-05-25T12:33:14.834Z,98830.09
2023-05-25T12:35:48.470Z,98893.72
2023-05-25T12:38:19.780Z,98735.06
2023-05-25T12:40:47.719Z,98847.91
2023-05-25T12:43:17.019Z,98892.31
2023-05-25T12:45:44.684Z,98974.06
2023-05-25T12:48:12.261Z,98991.53
2023-05-25T12:50:41.092Z,98757.56
2023-05-25T12:53:08.712Z,98891.34
2023-05-25T12:55:36.502Z,98955.22
2023-05-25T12:58:07.941Z,98794.34
2023-05-25T13:00:38.193Z,98896.84
2023-05-25T13:03:09.273Z,98885.06
2023-05-25T13:05:38.027Z,98833.94
2023-05-25T13:08:07.270Z,98873.25
2023-05-25T13:10:37.686Z,98860.69
2023-05-25T13:13:05.003Z,98774.47
2023-05-25T13:15:32.158Z,98867.28
2023-05-25T13:17:59.834Z,98737.75
2023-05-25T13:20:30.727Z,98788.00
2023-05-25T13:22:58.265Z,98568.78
2023-05-25T13:25:27.906Z,98688.72
2023-05-25T13:27:57.917Z,98730.72
2023-05-25T13:30:26.468Z,98633.09
2023-05-25T13:32:53.998Z,98816.84
2023-05-25T13:35:40.606Z,98854.34
2023-05-25T13:38:07.768Z,98840.34
2023-05-25T13:40:35.405Z,98896.59
2023-05-25T13:43:03.346Z,98848.72
2023-05-25T13:45:30.835Z,98819.81
2023-05-25T13:47:59.151Z,98857.25
2023-05-25T13:50:27.241Z,98835.16
2023-05-25T13:52:54.701Z,98678.25
2023-05-25T13:55:23.038Z,98697.03
2023-05-25T13:57:51.972Z,98640.94
2023-05-25T14:00:19.905Z,98766.09
2023-05-25T14:02:47.477Z,98744.06
2023-05-25T14:05:15.045Z,98492.28
2023-05-25T14:07:42.671Z,98523.03
2023-05-25T14:10:10.793Z,98681.66
2023-05-25T14:12:38.284Z,98564.59
2023-05-25T14:15:06.980Z,98519.72
2023-05-25T14:17:34.565Z,98607.38
2023-05-25T14:20:04.384Z,98573.22
2023-05-25T14:22:32.310Z,98654.13
2023-05-25T14:24:59.898Z,98622.41
2023-05-25T14:27:27.474Z,98723.69
2023-05-25T14:29:55.005Z,98754.81
2023-05-25T14:32:22.005Z,98660.16
2023-05-25T14:34:49.013Z,98637.13
2023-05-25T14:37:16.496Z,98603.28
2023-05-25T14:39:43.931Z,98470.84
2023-05-25T14:42:11.459Z,98572.38
2023-05-25T14:44:41.967Z,98587.41
2023-05-25T14:47:09.825Z,98516.53
2023-05-25T14:49:38.122Z,98583.56
2023-05-25T14:52:05.757Z,98476.34
2023-05-25T14:54:33.522Z,98502.03
2023-05-25T14:57:02.018Z,98313.88
2023-05-25T14:59:29.680Z,98360.19
2023-05-25T15:01:57.175Z,98260.28
2023-05-25T15:04:26.623Z,98221.91
2023-05-25T15:06:54.192Z,98309.16
2023-05-25T15:09:22.976Z,98541.59
2023-05-25T15:11:50.172Z,98537.94
2023-05-25T15:14:17.669Z,98257.00
2023-05-25T15:16:45.239Z,98300.94
2023-05-25T15:19:15.092Z,98321.72
2023-05-25T15:21:44.204Z,98501.66
2023-05-25T15:24:13.924Z,98466.41
2023-05-25T15:26:41.554Z,98498.22
2023-05-25T15:29:09.269Z,98547.25
2023-05-25T15:31:36.738Z,98415.56
2023-05-25T15:34:04.253Z,98358.34
2023-05-25T15:36:32.804Z,98452.59
2023-05-25T15:39:00.273Z,98354.69
2023-05-25T15:41:27.933Z,98494.53
2023-05-25T15:44:01.211Z,98435.34
2023-05-25T15:46:29.195Z,98401.41
2023-05-25T15:48:56.762Z,98432.38
2023-05-25T15:51:24.105Z,98466.75
2023-05-25T15:53:51.663Z,98415.69
2023-05-25T15:56:19.145Z,98351.09
2023-05-25T15:58:49.123Z,98446.44
2023-05-25T16:01:16.843Z,98358.78
2023-05-25T16:03:44.947Z,98420.28
2023-05-25T16:06:12.620Z,98376.66
2023-05-25T16:08:40.109Z,98305.78
2023-05-25T16:11:07.566Z,98472.00
2023-05-25T16:13:35.013Z,98452.56
2023-05-25T16:16:02.606Z,98414.88
2023-05-25T16:18:30.136Z,98541.00
2023-05-25T16:20:58.021Z,98577.53
2023-05-25T16:23:25.620Z,98582.69
2023-05-25T16:25:53.123Z,98644.03
2023-05-25T16:28:20.838Z,98573.34
2023-05-25T16:30:48.371Z,98591.16
2023-05-25T16:33:16.090Z,98609.59
2023-05-25T16:35:43.984Z,98524.88
2023-05-25T16:38:11.621Z,98570.63
2023-05-25T16:40:39.026Z,98592.34
2023-05-25T16:43:06.606Z,98612.78
2023-05-25T16:45:34.060Z,98554.63
2023-05-25T16:48:01.545Z,98480.88
2023-05-25T16:50:29.147Z,98618.63
2023-05-25T16:52:57.201Z,98730.88
2023-05-25T16:55:25.672Z,98716.56
2023-05-25T16:57:53.085Z,98630.09
2023-05-25T17:00:20.910Z,98539.31
2023-05-25T17:02:48.497Z,98549.03
2023-05-25T17:05:16.126Z,98598.38
2023-05-25T17:07:43.596Z,98655.03
2023-05-25T17:10:11.376Z,98727.38
2023-05-25T17:12:39.030Z,98730.81
2023-05-25T17:15:07.742Z,98794.16
2023-05-25T17:17:35.139Z,98686.78
2023-05-25T17:20:03.952Z,98754.44
2023-05-25T17:22:31.575Z,98762.41
2023-05-25T17:24:59.065Z,98755.69
2023-05-25T17:27:26.420Z,98780.53
2023-05-25T17:29:53.916Z,98704.31
2023-05-25T17:32:21.399Z,98688.91
2023-05-25T17:34:48.977Z,98782.44
2023-05-25T17:37:17.308Z,98752.00
2023-05-25T17:39:45.560Z,98718.03
2023-05-25T17:42:13.030Z,98713.34
2023-05-25T17:44:42.660Z,98760.19
2023-05-25T17:47:11.378Z,98766.38
2023-05-25T17:49:39.066Z,98734.69
2023-05-25T17:52:07.790Z,98804.09
2023-05-25T17:54:35.735Z,98856.44
2023-05-25T17:57:03.751Z,98819.00
2023-05-25T17:59:31.219Z,98866.81
2023-05-25T18:01:58.851Z,98868.88
2023-05-25T18:04:26.474Z,98880.88
2023-05-25T18:06:53.894Z,98935.22
2023-05-25T18:09:21.463Z,98903.94
2023-05-25T18:11:49.090Z,98951.19
2023-05-25T18:14:16.934Z,98972.44
2023-05-25T18:16:45.039Z,98962.09
2023-05-25T18:19:14.791Z,99001.59
2023-05-25T18:21:42.297Z,99022.53
2023-05-25T18:24:10.537Z,99028.78
2023-05-25T18:26:37.960Z,99075.00
2023-05-25T18:29:05.401Z,99073.59
2023-05-25T18:31:33.646Z,99113.66
2023-05-25T18:34:01.838Z,99103.50
2023-05-25T18:36:29.278Z,99123.16
2023-05-25T18:38:56.744Z,99181.53
2023-05-25T18:41:24.557Z,99154.38
2023-05-25T18:43:52.007Z,99191.59
2023-05-25T18:46:19.951Z,99233.16
2023-05-25T18:48:48.176Z,99241.75
2023-05-25T18:51:31.182Z,99261.56
2023-05-25T18:54:10.534Z,99284.78
2023-05-25T18:56:43.404Z,99294.44
2023-05-25T18:59:10.803Z,99298.81
2023-05-25T19:01:38.468Z,99335.31
2023-05-25T19:04:06.292Z,99343.94
2023-05-25T19:06:34.031Z,99399.22
2023-05-25T19:09:01.498Z,99392.03
2023-05-25T19:11:29.004Z,99395.19
2023-05-25T19:13:56.400Z,99415.19
2023-05-25T19:16:23.812Z,99454.84
2023-05-25T19:18:51.304Z,99476.56
2023-05-25T19:21:18.695Z,99507.56
2023-05-25T19:23:46.120Z,99530.16
2023-05-25T19:26:13.532Z,99531.84
2023-05-25T19:28:40.957Z,99569.44
2023-05-25T19:31:08.380Z,99597.25
2023-05-25T19:33:35.925Z,99619.28
2023-05-25T19:36:03.735Z,99630.34
2023-05-25T19:38:40.386Z,99646.72
2023-05-25T19:41:08.467Z,99659.41
2023-05-25T19:43:36.274Z,99690.84
2023-05-25T19:46:03.978Z,99708.34
2023-05-25T19:48:31.894Z,99718.38
2023-05-25T19:51:01.042Z,99735.69
2023-05-25T19:53:30.082Z,99773.00
2023-05-25T19:55:57.685Z,99779.69
2023-05-25T19:58:25.235Z,99802.25
2023-05-25T20:00:52.910Z,99826.38
2023-05-25T20:03:21.201Z,99855.88
2023-05-25T20:05:48.879Z,99866.06
2023-05-25T20:08:16.313Z,99874.38
2023-05-25T20:10:45.042Z,99917.03
2023-05-25T20:13:12.737Z,99899.88
2023-05-25T20:15:40.259Z,99916.84
2023-05-25T20:18:07.968Z,99927.72
2023-05-25T20:20:36.202Z,99939.25
2023-05-25T20:23:03.892Z,99933.56
2023-05-25T20:25:31.489Z,99961.59
2023-05-25T20:27:58.935Z,99982.22
2023-05-25T20:30:27.038Z,100011.41
2023-05-25T20:32:54.570Z,100012.63
2023-05-25T20:35:22.159Z,100010.38
2023-05-25T20:37:49.734Z,100014.78
2023-05-25T20:40:17.283Z,100027.44
2023-05-25T20:42:44.783Z,100038.47
2023-05-25T20:45:12.290Z,100027.16
2023-05-25T20:47:40.823Z,100055.44
2023-05-25T20:50:08.578Z,100051.22
2023-05-25T20:52:36.250Z,100048.66
2023-05-25T20:55:04.003Z,100054.00
2023-05-25T20:57:31.593Z,100064.69
2023-05-25T20:59:59.982Z,100072.91
2023-05-25T21:02:28.705Z,100060.81
2023-05-25T21:04:56.456Z,100074.09
2023-05-25T21:07:24.056Z,100083.03
2023-05-25T21:09:51.657Z,100098.34
2023-05-25T21:12:19.286Z,100115.56
2023-05-25T21:14:47.196Z,100134.56
2023-05-25T21:17:15.174Z,100177.19
2023-05-25T21:19:42.718Z,100196.06
2023-05-25T21:22:11.540Z,100205.81
2023-05-25T21:24:38.973Z,100231.53
2023-05-25T21:27:06.833Z,100234.50
2023-05-25T21:29:34.430Z,100284.94
2023-05-25T21:32:02.113Z,100273.56
2023-05-25T21:34:29.576Z,100293.09
2023-05-25T21:36:56.980Z,100281.78
2023-05-25T21:39:24.443Z,100308.44
2023-05-25T21:41:51.878Z,100310.31
2023-05-25T21:44:19.418Z,100305.97
2023-05-25T21:46:46.911Z,100319.44
2023-05-25T21:49:14.464Z,100341.66
2023-05-25T21:51:42.121Z,100363.09
2023-05-25T21:54:09.582Z,100392.28
2023-05-25T21:56:37.129Z,100409.28
2023-05-25T21:59:04.872Z,100399.56
2023-05-25T22:01:32.581Z,100419.97
2023-05-25T22:04:00.111Z,100435.97
2023-05-25T22:06:27.842Z,100468.78
2023-05-25T22:08:56.046Z,100473.34
2023-05-25T22:11:24.570Z,100476.09
2023-05-25T22:13:52.169Z,100485.03
2023-05-25T22:16:19.816Z,100513.41
2023-05-25T22:18:47.244Z,100533.88
2023-05-25T22:21:16.330Z,100551.69
2023-05-25T22:23:43.818Z,100562.38
2023-05-25T22:26:11.286Z,100573.91
2023-05-25T22:28:38.630Z,100581.97
2023-05-25T22:31:06.120Z,100581.97
2023-05-25T22:33:33.528Z,100607.75
2023-05-25T22:36:00.895Z,100611.31
2023-05-25T22:38:28.349Z,100609.56
2023-05-25T22:40:55.929Z,100619.34
2023-05-25T22:43:23.294Z,100633.53
2023-05-25T22:45:50.816Z,100637.97
2023-05-25T22:48:18.271Z,100649.53
2023-05-25T22:50:45.720Z,100647.81
2023-05-25T22:53:13.141Z,100662.91
2023-05-25T22:55:40.657Z,100679.81
2023-05-25T22:58:08.044Z,100685.09
2023-05-25T23:00:35.576Z,100696.66
2023-05-25T23:03:04.522Z,100696.69
2023-05-25T23:05:32.269Z,100719.75
2023-05-25T23:07:59.760Z,100726.88
2023-05-25T23:10:27.201Z,100729.53
2023-05-25T23:12:54.796Z,100752.59
2023-05-25T23:15:22.505Z,100745.50
2023-05-25T23:17:49.927Z,100760.59
2023-05-25T23:20:17.442Z,100779.22
2023-05-25T23:22:44.927Z,100773.88
2023-05-25T23:25:12.323Z,100792.47
2023-05-25T23:27:39.848Z,100794.25
2023-05-25T23:30:07.887Z,100798.69
2023-05-25T23:32:36.267Z,100811.97
2023-05-25T23:35:04.116Z,100819.97
2023-05-25T23:37:31.512Z,100818.19
2023-05-25T23:39:58.900Z,100823.50
2023-05-25T23:42:28.667Z,100831.47
2023-05-25T23:44:56.109Z,100835.91
2023-05-25T23:47:23.586Z,100850.97
2023-05-25T23:49:51.009Z,100856.28
2023-05-25T23:52:18.420Z,100850.97
2023-05-25T23:54:45.896Z,100869.56
2023-05-25T23:57:13.307Z,100866.88
2023-05-25T23:59:40.706Z,100883.72
